Terminal Aerodrome Forecast
Issued by NWS

Current Version | Previous Version | Text Only | Print | Product List | Glossary On
Versions: 1 2 3 4 5 6 7 8 9 10 11 12 13 14 15 16 17 18 19 20 21 22 23 24 25 26
735
FTUS42 KFFC 231743 CCA
TAFFTY
TAF COR
KFTY 231743Z 2318/2418 18005KT P6SM BKN020 BKN050
     FM232000 18007KT P6SM BKN050
     FM240000 14004KT P6SM SCT050 OVC100
     FM240800 15004KT P6SM BKN035
     FM241200 17006KT P6SM BKN020
     FM241500 20010KT P6SM BKN035=

USA.gov is the U.S. government's official web portal to all federal, state and local government web resources and services.